Time;durP1;ratioP1;P1;durP2;ratioP2;P2;SDS_P1;SDS_P2;PMS_P1;PMS_P2;Temp;Humidity;BMP_temperature;BMP_pressure;BME280_temperature;BME280_humidity;BME280_pressure;Samples;Min_cycle;Max_cycle;Signal;HPM_P1;HPM_P2
2023/09/18 00:02:07;;;;;;;7.90;7.05;;;16.10;99.90;;;;;;5014257;28;20029;-74
2023/09/18 00:04:33;;;;;;;8.95;7.72;;;16.20;99.90;;;;;;5013782;28;20552;-73
2023/09/18 00:06:59;;;;;;;9.45;8.18;;;16.30;99.90;;;;;;5019897;28;20014;-72
2023/09/18 00:09:24;;;;;;;7.90;7.10;;;16.40;99.90;;;;;;5013977;28;20025;-72
2023/09/18 00:11:50;;;;;;;11.20;8.15;;;16.30;99.90;;;;;;5022289;28;20493;-71
2023/09/18 00:14:15;;;;;;;9.55;8.38;;;16.40;99.90;;;;;;5013904;28;20147;-72
2023/09/18 00:16:41;;;;;;;9.77;7.97;;;16.30;99.90;;;;;;5014599;28;20036;-72
2023/09/18 00:19:10;;;;;;;9.23;7.80;;;16.30;99.90;;;;;;5019770;28;20022;-72
2023/09/18 00:21:36;;;;;;;8.57;6.95;;;16.30;99.90;;;;;;5017498;28;20021;-74
2023/09/18 00:24:01;;;;;;;9.80;8.00;;;16.20;99.90;;;;;;5017751;28;20021;-70
2023/09/18 00:26:27;;;;;;;9.63;7.57;;;16.20;99.90;;;;;;5016226;28;20029;-72
2023/09/18 00:28:52;;;;;;;8.70;7.75;;;16.20;99.90;;;;;;5018325;28;20408;-72
2023/09/18 00:31:19;;;;;;;11.70;7.10;;;16.10;99.90;;;;;;5015905;28;20489;-72
2023/09/18 00:33:44;;;;;;;11.18;7.50;;;16.20;99.90;;;;;;5020159;28;20105;-72
2023/09/18 00:36:10;;;;;;;10.50;8.00;;;16.20;99.90;;;;;;5014145;28;20105;-72
2023/09/18 00:38:35;;;;;;;10.38;8.18;;;16.20;99.90;;;;;;5015280;28;20057;-73
2023/09/18 00:41:01;;;;;;;9.88;7.82;;;16.30;99.90;;;;;;5014278;28;20029;-72
2023/09/18 00:43:26;;;;;;;10.00;7.18;;;16.30;99.90;;;;;;5015083;28;20037;-72
2023/09/18 00:45:52;;;;;;;8.90;7.85;;;16.40;99.90;;;;;;5023013;28;20477;-73
2023/09/18 00:48:18;;;;;;;10.05;7.55;;;16.40;99.90;;;;;;5018061;28;20033;-72
2023/09/18 00:50:47;;;;;;;10.65;8.18;;;16.40;99.90;;;;;;5013793;28;20685;-73
2023/09/18 00:53:19;;;;;;;8.93;7.57;;;16.50;99.90;;;;;;5021815;28;20056;-72
2023/09/18 00:55:46;;;;;;;8.75;6.80;;;16.50;99.90;;;;;;5021693;28;20014;-73
2023/09/18 00:58:11;;;;;;;7.95;7.15;;;16.60;99.90;;;;;;5021639;28;20028;-72
2023/09/18 01:00:38;;;;;;;9.52;8.25;;;16.50;99.90;;;;;;5017998;28;20029;-72
2023/09/18 01:03:04;;;;;;;8.43;7.53;;;16.60;99.90;;;;;;5020414;28;20030;-72
2023/09/18 01:05:34;;;;;;;10.63;8.25;;;16.60;99.90;;;;;;5025433;28;20033;-71
2023/09/18 01:07:59;;;;;;;9.02;7.90;;;16.60;99.90;;;;;;5018032;28;20099;-70
2023/09/18 01:10:32;;;;;;;9.02;6.97;;;16.60;99.90;;;;;;5027202;28;20298;-72
2023/09/18 01:13:13;;;;;;;7.85;7.05;;;16.60;99.90;;;;;;5023380;28;20078;-72
2023/09/18 01:15:54;;;;;;;7.75;6.63;;;16.50;99.90;;;;;;5018004;28;20022;-72
2023/09/18 01:18:19;;;;;;;7.28;6.43;;;16.50;99.90;;;;;;5017706;28;20851;-72
2023/09/18 01:20:45;;;;;;;7.22;6.40;;;16.50;99.90;;;;;;5020964;28;20053;-73
2023/09/18 01:23:11;;;;;;;10.65;8.15;;;16.50;99.90;;;;;;5022879;28;20029;-72
2023/09/18 01:25:37;;;;;;;8.32;7.40;;;16.50;99.90;;;;;;5019584;28;20030;-72
2023/09/18 01:28:02;;;;;;;8.57;7.43;;;16.50;99.90;;;;;;5019738;28;20482;-72
2023/09/18 01:30:28;;;;;;;9.50;7.60;;;16.40;99.90;;;;;;5022868;28;20033;-73
2023/09/18 01:32:56;;;;;;;9.50;7.53;;;16.40;99.90;;;;;;5018526;28;20052;-72
2023/09/18 01:35:28;;;;;;;7.32;6.40;;;16.40;99.90;;;;;;5021712;28;20030;-73
2023/09/18 01:37:55;;;;;;;8.27;7.45;;;16.40;99.90;;;;;;5024625;28;20386;-72
2023/09/18 01:40:21;;;;;;;8.82;7.25;;;16.30;99.90;;;;;;5025501;28;20533;-73
2023/09/18 01:42:47;;;;;;;8.57;7.25;;;16.20;99.90;;;;;;5020725;28;20109;-74
2023/09/18 01:45:13;;;;;;;10.10;8.40;;;16.20;99.90;;;;;;5021666;28;20117;-72
2023/09/18 01:47:38;;;;;;;8.45;7.47;;;16.20;99.90;;;;;;5019426;28;20057;-72
2023/09/18 01:50:07;;;;;;;10.55;7.72;;;16.20;99.90;;;;;;5027205;28;20105;-72
2023/09/18 01:52:34;;;;;;;10.30;8.23;;;16.20;99.90;;;;;;5020936;28;20060;-73
2023/09/18 01:55:00;;;;;;;8.15;7.35;;;16.20;99.90;;;;;;5010220;28;20094;-72
2023/09/18 01:57:25;;;;;;;10.05;8.50;;;16.20;99.90;;;;;;5012901;28;20022;-73
2023/09/18 01:59:51;;;;;;;12.10;8.10;;;16.30;99.90;;;;;;5014797;28;20013;-73
2023/09/18 02:02:16;;;;;;;8.35;7.55;;;16.20;99.90;;;;;;5012461;28;20034;-72
2023/09/18 02:04:42;;;;;;;7.97;7.18;;;16.20;99.90;;;;;;5016093;28;20025;-71
2023/09/18 02:07:07;;;;;;;9.32;7.38;;;16.20;99.90;;;;;;5014893;28;20033;-73
2023/09/18 02:09:33;;;;;;;8.05;7.20;;;16.20;99.90;;;;;;5013049;28;20033;-72
2023/09/18 02:11:58;;;;;;;7.65;6.85;;;16.10;99.90;;;;;;5015935;28;20030;-72
2023/09/18 02:14:24;;;;;;;9.73;8.27;;;16.10;99.90;;;;;;5004941;28;20117;-72
2023/09/18 02:16:50;;;;;;;7.80;7.03;;;16.00;99.90;;;;;;5013031;28;20064;-72
2023/09/18 02:19:20;;;;;;;7.75;6.93;;;15.90;99.90;;;;;;5012690;28;20029;-72
2023/09/18 02:21:45;;;;;;;9.10;8.00;;;15.80;99.90;;;;;;5017285;28;20540;-72
2023/09/18 02:24:11;;;;;;;8.93;7.82;;;15.80;99.90;;;;;;5025075;28;20033;-72
2023/09/18 02:26:37;;;;;;;11.95;8.55;;;15.80;99.90;;;;;;5012245;28;20071;-72
2023/09/18 02:29:07;;;;;;;10.98;8.23;;;15.90;99.90;;;;;;5013667;28;20559;-72
2023/09/18 02:31:33;;;;;;;10.07;8.18;;;15.90;99.90;;;;;;5008935;28;20141;-73
2023/09/18 02:33:58;;;;;;;9.55;8.23;;;15.90;99.90;;;;;;5014746;28;20096;-72
2023/09/18 02:36:24;;;;;;;9.35;7.88;;;15.90;99.90;;;;;;5013122;28;20512;-72
2023/09/18 02:38:49;;;;;;;10.65;8.50;;;16.00;99.90;;;;;;5016043;28;20057;-69
2023/09/18 02:41:15;;;;;;;9.23;8.30;;;16.00;99.90;;;;;;5013751;28;20030;-72
2023/09/18 02:43:40;;;;;;;9.93;8.05;;;16.00;99.90;;;;;;5013088;28;20026;-72
2023/09/18 02:46:06;;;;;;;10.93;8.43;;;16.00;99.90;;;;;;5014751;28;20041;-71
2023/09/18 02:48:32;;;;;;;8.85;7.88;;;16.00;99.90;;;;;;5015916;28;20032;-72
2023/09/18 02:51:02;;;;;;;10.00;8.32;;;16.00;99.90;;;;;;5019819;28;20108;-72
2023/09/18 02:53:27;;;;;;;9.60;8.48;;;16.00;99.90;;;;;;5019487;28;20385;-72
2023/09/18 02:55:55;;;;;;;12.45;8.50;;;16.00;99.90;;;;;;5021408;28;20014;-72
2023/09/18 02:58:22;;;;;;;10.68;7.80;;;16.10;99.90;;;;;;5021185;28;20432;-72
2023/09/18 03:00:50;;;;;;;11.65;8.98;;;16.10;99.90;;;;;;5015620;28;20104;-72
2023/09/18 03:03:16;;;;;;;10.88;9.60;;;16.10;99.90;;;;;;5024650;28;20292;-72
2023/09/18 03:05:43;;;;;;;9.95;8.02;;;16.20;99.90;;;;;;5026115;28;20037;-72
2023/09/18 03:08:09;;;;;;;9.77;8.77;;;16.20;99.90;;;;;;5022373;28;20026;-72
2023/09/18 03:10:35;;;;;;;9.95;8.20;;;16.20;99.90;;;;;;5024768;28;20091;-77
2023/09/18 03:13:02;;;;;;;8.32;7.30;;;16.20;99.90;;;;;;5029799;28;20017;-79
2023/09/18 03:15:27;;;;;;;11.20;9.20;;;16.20;99.90;;;;;;5019534;28;20056;-47
2023/09/18 03:17:53;;;;;;;19.80;8.95;;;16.20;99.90;;;;;;5026769;28;20057;-48
2023/09/18 03:20:21;;;;;;;12.32;9.00;;;16.30;99.90;;;;;;5027842;28;20087;-49
2023/09/18 03:22:47;;;;;;;10.60;8.43;;;16.30;99.90;;;;;;5022942;28;20128;-47
2023/09/18 03:25:12;;;;;;;11.23;9.02;;;16.30;99.90;;;;;;5026597;28;20163;-48
2023/09/18 03:27:38;;;;;;;8.90;8.00;;;16.30;99.90;;;;;;5020752;28;20029;-45
2023/09/18 03:30:04;;;;;;;10.02;7.72;;;16.30;99.90;;;;;;5031760;28;20029;-46
2023/09/18 03:32:30;;;;;;;10.65;9.50;;;16.30;99.90;;;;;;5023730;28;20042;-47
2023/09/18 03:34:55;;;;;;;9.13;8.05;;;16.30;99.90;;;;;;5028261;28;20018;-45
2023/09/18 03:37:20;;;;;;;9.35;7.82;;;16.30;99.90;;;;;;5027050;28;20030;-50
2023/09/18 03:39:46;;;;;;;8.70;7.80;;;16.30;99.90;;;;;;5023706;28;20052;-50
2023/09/18 03:42:12;;;;;;;11.27;8.48;;;16.30;99.90;;;;;;5028845;28;20715;-46
2023/09/18 03:44:37;;;;;;;11.50;8.20;;;16.20;99.90;;;;;;5028818;28;20033;-47
2023/09/18 03:47:03;;;;;;;9.52;8.27;;;16.30;99.90;;;;;;5025814;28;20036;-48
2023/09/18 03:49:29;;;;;;;9.63;7.93;;;16.30;99.90;;;;;;5025813;28;20489;-48
2023/09/18 03:51:55;;;;;;;8.40;7.38;;;16.20;99.90;;;;;;5025660;28;20025;-44
2023/09/18 03:54:20;;;;;;;10.23;7.53;;;16.20;99.90;;;;;;5021612;28;20048;-48
2023/09/18 03:56:46;;;;;;;8.93;7.60;;;16.10;99.90;;;;;;5020918;28;20049;-47
2023/09/18 03:59:12;;;;;;;8.65;7.75;;;16.20;99.90;;;;;;5021008;28;20457;-45
2023/09/18 04:01:37;;;;;;;10.05;7.28;;;16.10;99.90;;;;;;5022456;28;20029;-48
2023/09/18 04:04:03;;;;;;;8.95;7.40;;;16.10;99.90;;;;;;5025551;28;20112;-47
2023/09/18 04:06:43;;;;;;;7.80;7.00;;;16.10;99.90;;;;;;5017542;28;20084;-48
2023/09/18 04:09:09;;;;;;;8.57;7.40;;;16.00;99.90;;;;;;5018552;28;20037;-46
2023/09/18 04:11:34;;;;;;;8.23;7.35;;;16.00;99.90;;;;;;5021151;28;20045;-45
2023/09/18 04:14:01;;;;;;;9.88;7.25;;;16.00;99.90;;;;;;5022415;28;20033;-48
2023/09/18 04:16:37;;;;;;;12.25;7.18;;;15.90;99.90;;;;;;5014473;28;20030;-48
2023/09/18 04:19:02;;;;;;;46.40;14.27;;;15.90;99.90;;;;;;5018437;28;20021;-51
2023/09/18 04:21:29;;;;;;;13.00;7.57;;;15.90;99.90;;;;;;5023716;28;20038;-49
2023/09/18 04:23:57;;;;;;;9.35;8.05;;;15.80;99.90;;;;;;5029084;28;20021;-46
2023/09/18 04:26:23;;;;;;;8.95;7.32;;;15.80;99.90;;;;;;5022346;28;20529;-47
2023/09/18 04:28:49;;;;;;;8.50;7.50;;;15.70;99.90;;;;;;5023079;28;20120;-44
2023/09/18 04:31:16;;;;;;;9.18;7.97;;;15.70;99.90;;;;;;5020670;28;20730;-47
2023/09/18 04:33:41;;;;;;;8.30;7.40;;;15.60;99.90;;;;;;5018349;28;20110;-46
2023/09/18 04:36:07;;;;;;;7.97;6.63;;;15.60;99.90;;;;;;5022330;28;20525;-44
2023/09/18 04:38:33;;;;;;;9.30;7.78;;;15.60;99.90;;;;;;5021965;28;20072;-47
2023/09/18 04:40:59;;;;;;;9.30;8.07;;;15.60;99.90;;;;;;5021346;28;20053;-50
2023/09/18 04:43:25;;;;;;;7.90;7.10;;;15.60;99.90;;;;;;5017052;28;20033;-48
2023/09/18 04:45:51;;;;;;;8.85;7.68;;;15.60;99.90;;;;;;5023782;28;20390;-48
2023/09/18 04:48:16;;;;;;;10.40;8.13;;;15.60;99.90;;;;;;5024321;28;20546;-46
2023/09/18 04:50:45;;;;;;;8.25;7.03;;;15.60;99.90;;;;;;5018686;28;20018;-46
2023/09/18 04:53:12;;;;;;;8.10;7.25;;;15.60;99.90;;;;;;5021656;28;20421;-48
2023/09/18 04:55:38;;;;;;;7.65;6.57;;;15.60;99.90;;;;;;5013404;28;20018;-47
2023/09/18 04:58:04;;;;;;;10.48;7.78;;;15.60;99.90;;;;;;5016976;28;20029;-51
2023/09/18 05:00:31;;;;;;;8.70;7.22;;;15.60;99.90;;;;;;5016565;28;20048;-47
2023/09/18 05:03:00;;;;;;;8.70;7.53;;;15.70;99.90;;;;;;5021812;28;20018;-47
2023/09/18 05:05:25;;;;;;;16.88;8.52;;;15.80;99.90;;;;;;5022249;28;20025;-45
2023/09/18 05:07:51;;;;;;;8.52;7.63;;;15.80;99.90;;;;;;5024978;28;20537;-49
2023/09/18 05:10:16;;;;;;;9.20;7.85;;;15.90;99.90;;;;;;5016389;28;20529;-48
2023/09/18 05:12:42;;;;;;;10.68;7.85;;;15.90;99.90;;;;;;5022640;28;20030;-45
2023/09/18 05:15:09;;;;;;;11.50;8.00;;;16.00;99.90;;;;;;5015413;28;20346;-51
2023/09/18 05:17:47;;;;;;;8.80;7.30;;;16.10;99.90;;;;;;5020289;28;20108;-47
2023/09/18 05:20:16;;;;;;;12.48;8.68;;;16.20;99.90;;;;;;5023445;28;20539;-44
2023/09/18 05:22:43;;;;;;;8.95;7.80;;;16.30;99.90;;;;;;5020882;28;20104;-45
2023/09/18 05:25:10;;;;;;;8.40;7.32;;;16.40;99.90;;;;;;5020184;28;20444;-48
2023/09/18 05:27:43;;;;;;;8.77;7.88;;;16.40;99.90;;;;;;5020828;28;20022;-46
2023/09/18 05:30:10;;;;;;;10.85;8.45;;;16.40;99.90;;;;;;5020522;28;20112;-47
2023/09/18 05:32:35;;;;;;;8.40;6.90;;;16.50;99.90;;;;;;5019004;28;20072;-44
2023/09/18 05:35:04;;;;;;;10.70;8.23;;;16.50;99.90;;;;;;5022467;28;20449;-48
2023/09/18 05:37:30;;;;;;;8.15;7.00;;;16.90;99.90;;;;;;5021728;28;20048;-47
2023/09/18 05:39:55;;;;;;;8.35;7.40;;;17.40;99.90;;;;;;5016942;28;20021;-46
2023/09/18 05:42:21;;;;;;;8.18;6.63;;;18.00;99.90;;;;;;5022797;28;20098;-46
2023/09/18 05:44:47;;;;;;;7.03;6.28;;;18.50;99.90;;;;;;5019089;28;20104;-45
2023/09/18 05:47:13;;;;;;;7.03;5.80;;;19.00;97.90;;;;;;5019143;28;20034;-46
2023/09/18 05:49:38;;;;;;;7.13;6.43;;;19.40;97.60;;;;;;5025816;28;20032;-44
2023/09/18 05:52:04;;;;;;;8.25;7.13;;;19.80;95.30;;;;;;5018061;28;20029;-45
2023/09/18 05:54:29;;;;;;;6.95;5.78;;;20.40;94.60;;;;;;5022785;28;20053;-44
2023/09/18 05:56:55;;;;;;;8.95;5.60;;;20.70;92.60;;;;;;5022318;28;20218;-45
2023/09/18 05:59:20;;;;;;;7.75;5.90;;;21.10;89.50;;;;;;5020119;28;20037;-44
2023/09/18 06:01:48;;;;;;;7.43;5.00;;;21.30;91.10;;;;;;5019962;28;20481;-44
2023/09/18 06:04:13;;;;;;;6.68;5.85;;;21.90;90.60;;;;;;5017749;28;20031;-47
2023/09/18 06:06:39;;;;;;;7.13;5.30;;;22.30;80.20;;;;;;5017819;28;20030;-46
2023/09/18 06:09:04;;;;;;;5.57;4.95;;;22.70;85.80;;;;;;5016101;28;20477;-46
2023/09/18 06:11:30;;;;;;;7.65;6.07;;;22.80;77.70;;;;;;5016152;28;20045;-46
2023/09/18 06:13:56;;;;;;;6.85;4.88;;;23.00;79.30;;;;;;5004711;28;20096;-45
2023/09/18 06:16:21;;;;;;;6.43;4.70;;;23.10;80.70;;;;;;5011678;28;20048;-46
2023/09/18 06:18:47;;;;;;;5.15;4.65;;;23.50;74.90;;;;;;5017818;28;20017;-51
2023/09/18 06:21:12;;;;;;;5.95;5.35;;;23.40;72.40;;;;;;5011474;28;20037;-45
2023/09/18 06:23:38;;;;;;;6.53;5.30;;;23.30;76.50;;;;;;5015731;28;20113;-48
2023/09/18 06:26:04;;;;;;;5.90;4.63;;;23.40;72.80;;;;;;5013803;28;20416;-48
2023/09/18 06:28:29;;;;;;;6.35;5.63;;;23.60;77.60;;;;;;5013772;28;20022;-46
2023/09/18 06:30:55;;;;;;;5.40;4.47;;;23.70;75.40;;;;;;5015427;28;20021;-46
2023/09/18 06:33:21;;;;;;;5.97;5.38;;;24.10;76.60;;;;;;5013730;28;20141;-43
2023/09/18 06:35:48;;;;;;;9.98;4.35;;;23.90;71.20;;;;;;5019324;28;20020;-44
2023/09/18 06:38:15;;;;;;;5.43;4.50;;;23.90;73.60;;;;;;5010467;28;20030;-46
2023/09/18 06:40:40;;;;;;;4.90;4.40;;;23.60;75.40;;;;;;5013483;28;20033;-46
2023/09/18 06:43:06;;;;;;;5.13;4.63;;;23.50;73.30;;;;;;5017274;28;20029;-47
2023/09/18 06:45:33;;;;;;;5.55;4.47;;;23.30;76.50;;;;;;5012934;28;20072;-44
2023/09/18 06:48:00;;;;;;;7.13;5.35;;;23.20;76.70;;;;;;5011384;28;20021;-48
2023/09/18 06:50:25;;;;;;;5.03;4.45;;;23.20;74.70;;;;;;5017825;28;20105;-46
2023/09/18 06:52:51;;;;;;;5.22;4.72;;;23.50;76.20;;;;;;5014760;28;20124;-45
2023/09/18 06:55:17;;;;;;;6.55;4.75;;;24.00;71.70;;;;;;5015204;28;20109;-48
2023/09/18 06:57:42;;;;;;;4.95;4.55;;;24.40;74.00;;;;;;5013755;28;20460;-46
2023/09/18 07:00:09;;;;;;;5.78;4.13;;;24.50;73.00;;;;;;5013159;28;20101;-48
2023/09/18 07:02:34;;;;;;;7.68;5.43;;;24.60;72.50;;;;;;5011007;28;20025;-50
2023/09/18 07:04:59;;;;;;;8.00;5.22;;;24.80;68.70;;;;;;5015137;28;20041;-47
2023/09/18 07:07:25;;;;;;;5.57;4.88;;;24.70;71.30;;;;;;5009454;28;20026;-47
2023/09/18 07:09:54;;;;;;;7.53;5.30;;;24.70;70.20;;;;;;5011746;28;20025;-46
2023/09/18 07:12:19;;;;;;;10.90;5.20;;;25.00;70.30;;;;;;5013774;28;20429;-45
2023/09/18 07:14:48;;;;;;;8.82;4.43;;;25.10;66.50;;;;;;5009309;28;20037;-43
2023/09/18 07:17:13;;;;;;;4.45;4.00;;;25.30;65.10;;;;;;5012628;28;20551;-44
2023/09/18 07:19:39;;;;;;;8.70;4.75;;;25.70;68.20;;;;;;5011022;28;20022;-46
2023/09/18 07:22:04;;;;;;;4.78;4.28;;;26.30;62.90;;;;;;5015102;28;20055;-47
2023/09/18 07:24:30;;;;;;;5.13;4.25;;;26.70;64.10;;;;;;5012857;28;20021;-46
2023/09/18 07:26:57;;;;;;;5.30;4.80;;;27.20;62.40;;;;;;5007583;28;20054;-49
2023/09/18 07:29:25;;;;;;;5.55;3.90;;;27.60;62.50;;;;;;5013563;28;20508;-49
2023/09/18 07:31:51;;;;;;;4.78;4.18;;;27.70;61.80;;;;;;5014840;28;20069;-46
2023/09/18 07:34:17;;;;;;;10.35;4.65;;;27.60;60.70;;;;;;5016328;28;20040;-48
2023/09/18 07:36:44;;;;;;;4.82;4.20;;;27.30;55.50;;;;;;5011018;28;20022;-46
2023/09/18 07:39:11;;;;;;;5.47;4.70;;;27.00;59.30;;;;;;5010863;28;20052;-49
2023/09/18 07:41:37;;;;;;;5.15;4.57;;;27.20;60.10;;;;;;5016627;28;20041;-45
2023/09/18 07:44:02;;;;;;;4.93;4.28;;;27.10;61.00;;;;;;5011723;28;20030;-45
2023/09/18 07:46:28;;;;;;;5.43;4.93;;;27.20;60.40;;;;;;5009401;28;20038;-47
2023/09/18 07:48:53;;;;;;;5.32;4.70;;;27.50;59.00;;;;;;5020227;28;20052;-44
2023/09/18 07:51:19;;;;;;;5.07;4.57;;;27.80;56.90;;;;;;5013725;28;20646;-48
2023/09/18 07:53:45;;;;;;;8.05;4.68;;;27.20;57.50;;;;;;5015307;28;20029;-43
2023/09/18 07:56:10;;;;;;;5.15;4.00;;;27.10;58.50;;;;;;5016594;28;20022;-44
2023/09/18 07:58:38;;;;;;;5.03;3.72;;;27.50;57.50;;;;;;5013812;28;20386;-47
2023/09/18 08:01:05;;;;;;;4.30;3.90;;;27.70;56.50;;;;;;5015681;28;20071;-48
2023/09/18 08:03:31;;;;;;;4.78;4.28;;;27.80;54.60;;;;;;5012525;28;20033;-50
2023/09/18 08:05:57;;;;;;;4.95;4.45;;;27.30;54.60;;;;;;5014007;28;20030;-49
2023/09/18 08:08:23;;;;;;;7.32;4.68;;;26.90;56.50;;;;;;5017834;28;20033;-46
2023/09/18 08:10:50;;;;;;;5.32;3.85;;;26.70;56.10;;;;;;5016644;28;20033;-45
2023/09/18 08:13:16;;;;;;;4.95;4.40;;;26.80;58.00;;;;;;5008651;28;20109;-47
2023/09/18 08:15:41;;;;;;;4.32;3.90;;;27.10;56.90;;;;;;5018026;28;20551;-47
2023/09/18 08:18:07;;;;;;;6.22;4.10;;;27.40;55.40;;;;;;5013966;28;20109;-46
2023/09/18 08:20:33;;;;;;;4.60;4.20;;;27.30;55.00;;;;;;5017916;28;20437;-47
2023/09/18 08:23:03;;;;;;;6.90;4.25;;;27.20;57.10;;;;;;5017353;28;20026;-47
2023/09/18 08:25:28;;;;;;;4.15;3.75;;;27.50;55.00;;;;;;5014952;28;20033;-48
2023/09/18 08:27:54;;;;;;;5.05;4.55;;;27.40;56.00;;;;;;5015373;28;20041;-47
2023/09/18 08:30:20;;;;;;;7.55;4.38;;;27.40;55.90;;;;;;5015620;28;20546;-47
2023/09/18 08:32:47;;;;;;;4.38;3.97;;;27.60;54.80;;;;;;5013647;28;20046;-44
2023/09/18 08:35:13;;;;;;;4.68;4.25;;;27.50;53.90;;;;;;5017503;28;20052;-48
2023/09/18 08:37:41;;;;;;;4.30;3.90;;;27.70;54.70;;;;;;5025974;28;20025;-47
2023/09/18 08:40:09;;;;;;;6.40;3.97;;;27.80;53.00;;;;;;5017989;28;20025;-47
2023/09/18 08:42:39;;;;;;;6.28;4.55;;;28.00;54.50;;;;;;5014742;28;20120;-46
2023/09/18 08:45:09;;;;;;;5.78;4.40;;;28.00;54.90;;;;;;5017603;28;20033;-47
2023/09/18 08:47:35;;;;;;;4.60;4.20;;;28.20;53.60;;;;;;5013323;28;20690;-48
2023/09/18 08:50:01;;;;;;;4.78;4.07;;;28.30;53.40;;;;;;5017452;28;20029;-50
2023/09/18 08:52:27;;;;;;;4.90;3.55;;;28.10;54.50;;;;;;5015569;28;20021;-46
2023/09/18 08:54:56;;;;;;;4.68;4.15;;;28.40;53.80;;;;;;5013988;28;20672;-47
2023/09/18 08:57:22;;;;;;;4.15;3.75;;;28.90;52.00;;;;;;5017957;28;20497;-44
2023/09/18 08:59:50;;;;;;;4.05;3.65;;;29.00;51.60;;;;;;5018200;28;20053;-50
2023/09/18 09:02:15;;;;;;;5.15;3.78;;;29.10;51.50;;;;;;5014895;28;20397;-46
2023/09/18 09:04:41;;;;;;;3.97;3.58;;;29.10;51.10;;;;;;5017210;28;20036;-46
2023/09/18 09:07:07;;;;;;;5.68;3.92;;;29.10;48.70;;;;;;5016905;28;20417;-48
2023/09/18 09:09:33;;;;;;;4.25;3.83;;;29.10;50.20;;;;;;5015437;28;20815;-45
2023/09/18 09:11:58;;;;;;;4.35;3.90;;;29.20;49.10;;;;;;5013728;28;20026;-46
2023/09/18 09:14:30;;;;;;;4.55;3.47;;;29.30;46.60;;;;;;5013119;28;20037;-61
2023/09/18 09:16:57;;;;;;;3.78;3.22;;;28.80;45.90;;;;;;5016501;28;20029;-78
2023/09/18 09:19:30;;;;;;;3.65;3.15;;;28.40;46.90;;;;;;5015446;28;20446;-62
2023/09/18 09:21:58;;;;;;;3.22;2.85;;;28.50;47.50;;;;;;5018024;28;20032;-63
2023/09/18 09:24:42;;;;;;;3.70;3.30;;;28.40;46.60;;;;;;5016450;28;20022;-62
2023/09/18 09:27:12;;;;;;;3.47;2.88;;;28.70;46.60;;;;;;5015252;28;20029;-63
2023/09/18 09:29:38;;;;;;;5.93;3.60;;;28.90;46.20;;;;;;5021058;28;20021;-63
2023/09/18 09:32:13;;;;;;;3.60;3.28;;;28.60;45.00;;;;;;5012619;28;20045;-62
2023/09/18 09:34:40;;;;;;;3.15;2.88;;;28.30;45.80;;;;;;5011044;28;20030;-63
2023/09/18 09:37:06;;;;;;;4.10;2.92;;;28.40;45.50;;;;;;5011063;28;20025;-63
2023/09/18 09:39:31;;;;;;;4.50;3.08;;;28.50;45.30;;;;;;5015493;28;20713;-63
2023/09/18 09:42:01;;;;;;;3.13;2.80;;;28.70;45.10;;;;;;5012229;28;20041;-63
2023/09/18 09:44:28;;;;;;;4.10;2.67;;;28.90;44.90;;;;;;5010699;28;20021;-64
2023/09/18 09:46:54;;;;;;;4.63;3.17;;;29.10;44.20;;;;;;5014115;28;20028;-63
2023/09/18 09:49:23;;;;;;;4.15;3.15;;;29.20;42.10;;;;;;5012355;28;20038;-62
2023/09/18 09:51:48;;;;;;;4.07;2.92;;;29.00;42.10;;;;;;5015881;28;20033;-62
2023/09/18 09:54:14;;;;;;;5.55;3.30;;;28.90;42.30;;;;;;5014296;28;20519;-63
2023/09/18 09:56:48;;;;;;;3.95;3.20;;;28.70;42.60;;;;;;5012884;28;20029;-63
2023/09/18 09:59:15;;;;;;;3.08;2.80;;;28.70;42.10;;;;;;5014329;28;20025;-62
2023/09/18 10:01:41;;;;;;;4.43;2.92;;;28.70;42.80;;;;;;5014245;28;20037;-63
2023/09/18 10:04:13;;;;;;;3.05;2.75;;;28.70;42.40;;;;;;5017086;28;20026;-62
2023/09/18 10:06:43;;;;;;;3.80;2.90;;;28.70;42.40;;;;;;5015967;28;20029;-63
2023/09/18 10:09:10;;;;;;;3.30;3.00;;;28.60;42.40;;;;;;5012108;28;20070;-63
2023/09/18 10:11:40;;;;;;;3.45;3.15;;;28.50;41.80;;;;;;5012597;28;20072;-63
2023/09/18 10:14:31;;;;;;;4.47;3.08;;;28.40;42.20;;;;;;5007197;28;20100;-62
2023/09/18 10:17:02;;;;;;;5.00;3.38;;;28.20;41.80;;;;;;5020371;28;20013;-62
2023/09/18 10:19:39;;;;;;;4.63;3.08;;;28.10;41.80;;;;;;5016489;28;20778;-63
2023/09/18 10:22:13;;;;;;;3.60;3.30;;;27.90;40.50;;;;;;5015083;28;20389;-62
2023/09/18 10:24:43;;;;;;;4.22;2.80;;;27.70;41.40;;;;;;5011575;28;20029;-63
2023/09/18 10:27:13;;;;;;;3.40;3.10;;;27.70;42.50;;;;;;5019750;28;20651;-62
2023/09/18 10:29:40;;;;;;;3.47;3.17;;;28.00;42.50;;;;;;5015825;28;20025;-63
2023/09/18 10:32:10;;;;;;;3.17;2.88;;;28.20;40.70;;;;;;5011578;28;20049;-62
2023/09/18 10:34:36;;;;;;;4.00;3.08;;;28.30;39.80;;;;;;5012145;28;20523;-62
2023/09/18 10:37:07;;;;;;;3.78;3.08;;;28.30;39.90;;;;;;5013161;28;20041;-62
2023/09/18 10:39:39;;;;;;;3.25;2.95;;;28.50;41.30;;;;;;5011298;28;20584;-62
2023/09/18 10:42:06;;;;;;;4.10;3.03;;;28.40;40.60;;;;;;5014270;28;20021;-63
2023/09/18 10:44:32;;;;;;;3.20;2.90;;;28.40;40.60;;;;;;5017556;28;20025;-63
2023/09/18 10:47:00;;;;;;;3.83;3.13;;;28.60;40.70;;;;;;5010571;28;20509;-63
2023/09/18 10:49:25;;;;;;;4.00;3.20;;;28.70;39.30;;;;;;5012369;28;20503;-62
2023/09/18 10:51:54;;;;;;;4.13;2.90;;;28.60;39.10;;;;;;5011165;28;20490;-62
2023/09/18 10:54:21;;;;;;;3.03;2.60;;;28.60;38.20;;;;;;5012568;28;20038;-62
2023/09/18 10:56:47;;;;;;;4.30;2.90;;;28.60;38.20;;;;;;5014383;28;20030;-63
2023/09/18 10:59:14;;;;;;;4.10;3.10;;;28.60;38.50;;;;;;5010968;28;20057;-63
2023/09/18 11:01:39;;;;;;;3.45;3.15;;;28.60;38.80;;;;;;5013843;28;20030;-62
2023/09/18 11:04:07;;;;;;;3.65;3.00;;;28.60;38.70;;;;;;5012739;28;20036;-62
2023/09/18 11:06:54;;;;;;;3.58;3.28;;;28.60;38.70;;;;;;5010966;28;20057;-63
2023/09/18 11:09:21;;;;;;;5.93;2.85;;;28.70;38.40;;;;;;5010337;28;20100;-63
2023/09/18 11:11:58;;;;;;;4.18;3.20;;;28.50;38.60;;;;;;5011035;28;20026;-63
2023/09/18 11:14:40;;;;;;;3.28;2.97;;;28.40;38.40;;;;;;5006388;28;20096;-64
2023/09/18 11:17:06;;;;;;;4.28;3.15;;;28.30;39.00;;;;;;5011943;28;20094;-63
2023/09/18 11:19:31;;;;;;;3.40;2.80;;;28.20;40.10;;;;;;5016910;28;20034;-63
2023/09/18 11:22:08;;;;;;;3.53;2.80;;;28.20;39.90;;;;;;5014908;28;20022;-63
2023/09/18 11:24:33;;;;;;;6.50;3.20;;;28.30;39.70;;;;;;5015782;28;20044;-64
2023/09/18 11:26:59;;;;;;;3.97;3.22;;;28.30;40.00;;;;;;5013333;28;20580;-63
2023/09/18 11:29:28;;;;;;;3.95;3.55;;;28.40;40.00;;;;;;5017839;28;20163;-63
2023/09/18 11:31:56;;;;;;;6.80;3.10;;;28.30;40.20;;;;;;5017906;28;20033;-63
2023/09/18 11:34:28;;;;;;;3.47;2.90;;;28.30;40.80;;;;;;5016998;28;20037;-63
2023/09/18 11:36:53;;;;;;;3.92;3.53;;;28.20;40.90;;;;;;5014756;28;20022;-63
2023/09/18 11:39:43;;;;;;;4.90;3.70;;;28.10;41.20;;;;;;5017596;28;20123;-63
2023/09/18 11:42:16;;;;;;;4.47;3.42;;;28.00;40.50;;;;;;5016165;28;20493;-63
2023/09/18 11:44:46;;;;;;;3.55;3.25;;;27.90;41.30;;;;;;5021591;28;20018;-64
2023/09/18 11:47:19;;;;;;;4.00;3.60;;;27.90;42.00;;;;;;5020731;28;20021;-63
2023/09/18 11:49:54;;;;;;;4.93;3.67;;;27.90;41.70;;;;;;5016778;28;20034;-63
2023/09/18 11:52:21;;;;;;;3.80;3.40;;;27.90;41.90;;;;;;5015756;28;20393;-63
2023/09/18 11:54:48;;;;;;;6.10;3.53;;;27.90;41.80;;;;;;5022646;28;20033;-62
2023/09/18 11:57:14;;;;;;;3.50;3.20;;;28.00;42.00;;;;;;5020076;28;20033;-63
2023/09/18 11:59:43;;;;;;;2.80;2.60;;;28.00;41.90;;;;;;5012922;28;20466;-63
2023/09/18 12:02:11;;;;;;;4.53;2.95;;;27.90;42.40;;;;;;5019170;28;20492;-63
2023/09/18 12:04:36;;;;;;;6.72;3.53;;;27.80;42.40;;;;;;5030992;28;20112;-63
2023/09/18 12:07:05;;;;;;;3.90;3.10;;;27.70;42.40;;;;;;5014296;28;20112;-63
2023/09/18 12:09:32;;;;;;;3.15;2.83;;;27.70;42.70;;;;;;5016676;28;20709;-63
2023/09/18 12:12:03;;;;;;;4.07;3.58;;;27.60;43.00;;;;;;5015739;28;20034;-63
2023/09/18 12:14:30;;;;;;;4.35;2.83;;;27.60;43.70;;;;;;5009984;28;20461;-63
2023/09/18 12:16:57;;;;;;;4.97;3.47;;;27.50;43.70;;;;;;5013762;28;20057;-63
2023/09/18 12:19:23;;;;;;;5.20;3.58;;;27.40;43.80;;;;;;5014037;28;20030;-63
2023/09/18 12:21:49;;;;;;;5.60;3.45;;;27.30;44.00;;;;;;5015128;28;20028;-63
2023/09/18 12:24:20;;;;;;;3.63;3.25;;;27.30;44.30;;;;;;5017815;28;23109;-63
2023/09/18 12:26:45;;;;;;;4.68;3.17;;;27.40;44.40;;;;;;5018005;28;20045;-63
2023/09/18 12:29:11;;;;;;;3.95;3.55;;;27.50;44.40;;;;;;5013765;28;20030;-63
2023/09/18 12:31:37;;;;;;;5.00;3.28;;;27.70;44.20;;;;;;5015976;28;20095;-63
2023/09/18 12:34:03;;;;;;;4.40;3.22;;;27.70;43.90;;;;;;5019977;28;20038;-62
2023/09/18 12:36:30;;;;;;;8.75;3.60;;;27.80;43.90;;;;;;5013883;28;20481;-63
2023/09/18 12:39:00;;;;;;;3.60;3.30;;;27.80;44.10;;;;;;5013386;28;20513;-62
2023/09/18 12:41:26;;;;;;;3.58;3.28;;;27.80;44.20;;;;;;5019967;28;20096;-63
2023/09/18 12:43:54;;;;;;;3.72;2.90;;;27.70;44.30;;;;;;5017186;28;20461;-63
2023/09/18 12:46:21;;;;;;;4.22;3.83;;;27.80;44.40;;;;;;5013617;28;23675;-63